sensor_id;sensor_type;location;lat;lon;timestamp;temperature;humidity
24446;DHT22;13347;50.984;5.822;2023-06-26T00:01:37;23.60;1.20
24446;DHT22;13347;50.984;5.822;2023-06-26T00:04:05;23.60;3.90
24446;DHT22;13347;50.984;5.822;2023-06-26T00:06:32;23.50;9.90
24446;DHT22;13347;50.984;5.822;2023-06-26T00:09:00;23.50;1.00
24446;DHT22;13347;50.984;5.822;2023-06-26T00:11:27;23.60;38.10
24446;DHT22;13347;50.984;5.822;2023-06-26T00:13:56;23.70;13.50
24446;DHT22;13347;50.984;5.822;2023-06-26T00:16:23;23.70;15.80
24446;DHT22;13347;50.984;5.822;2023-06-26T00:18:52;23.70;12.30
24446;DHT22;13347;50.984;5.822;2023-06-26T00:21:19;23.70;1.00
24446;DHT22;13347;50.984;5.822;2023-06-26T00:23:46;23.80;1.00
24446;DHT22;13347;50.984;5.822;2023-06-26T00:26:12;24.00;1.00
24446;DHT22;13347;50.984;5.822;2023-06-26T00:28:39;24.00;1.00
24446;DHT22;13347;50.984;5.822;2023-06-26T00:31:06;24.00;1.00
24446;DHT22;13347;50.984;5.822;2023-06-26T00:33:33;24.00;1.00
24446;DHT22;13347;50.984;5.822;2023-06-26T00:36:02;24.00;1.00
24446;DHT22;13347;50.984;5.822;2023-06-26T00:38:29;24.10;1.00
24446;DHT22;13347;50.984;5.822;2023-06-26T00:40:56;24.50;1.00
24446;DHT22;13347;50.984;5.822;2023-06-26T00:43:23;24.70;1.00
24446;DHT22;13347;50.984;5.822;2023-06-26T00:45:49;24.60;1.00
24446;DHT22;13347;50.984;5.822;2023-06-26T00:48:16;24.50;1.00
24446;DHT22;13347;50.984;5.822;2023-06-26T00:50:44;24.40;1.00
24446;DHT22;13347;50.984;5.822;2023-06-26T00:53:12;24.40;1.00
24446;DHT22;13347;50.984;5.822;2023-06-26T00:55:39;24.30;1.00
24446;DHT22;13347;50.984;5.822;2023-06-26T00:58:06;24.20;1.00
24446;DHT22;13347;50.984;5.822;2023-06-26T01:00:33;24.10;1.00
24446;DHT22;13347;50.984;5.822;2023-06-26T01:03:00;24.00;1.00
24446;DHT22;13347;50.984;5.822;2023-06-26T01:05:27;23.90;1.00
24446;DHT22;13347;50.984;5.822;2023-06-26T01:07:54;23.80;1.00
24446;DHT22;13347;50.984;5.822;2023-06-26T01:10:23;23.70;1.00
24446;DHT22;13347;50.984;5.822;2023-06-26T01:12:52;23.60;1.00
24446;DHT22;13347;50.984;5.822;2023-06-26T01:15:20;23.50;1.00
24446;DHT22;13347;50.984;5.822;2023-06-26T01:17:47;23.40;41.50
24446;DHT22;13347;50.984;5.822;2023-06-26T01:20:14;23.30;91.30
24446;DHT22;13347;50.984;5.822;2023-06-26T01:22:45;23.10;99.90
24446;DHT22;13347;50.984;5.822;2023-06-26T01:25:18;23.00;99.90
24446;DHT22;13347;50.984;5.822;2023-06-26T01:27:50;22.90;99.90
24446;DHT22;13347;50.984;5.822;2023-06-26T01:30:17;22.70;99.90
24446;DHT22;13347;50.984;5.822;2023-06-26T01:32:44;22.70;99.90
24446;DHT22;13347;50.984;5.822;2023-06-26T01:35:12;22.70;99.90
24446;DHT22;13347;50.984;5.822;2023-06-26T01:37:39;22.60;99.90
24446;DHT22;13347;50.984;5.822;2023-06-26T01:40:06;22.60;99.90
24446;DHT22;13347;50.984;5.822;2023-06-26T01:42:33;22.50;1.00
24446;DHT22;13347;50.984;5.822;2023-06-26T01:45:03;22.40;1.00
24446;DHT22;13347;50.984;5.822;2023-06-26T01:47:32;22.40;1.00
24446;DHT22;13347;50.984;5.822;2023-06-26T01:50:02;22.40;1.00
24446;DHT22;13347;50.984;5.822;2023-06-26T01:52:32;22.30;1.00
24446;DHT22;13347;50.984;5.822;2023-06-26T01:55:02;22.20;1.00
24446;DHT22;13347;50.984;5.822;2023-06-26T01:57:30;22.20;1.00
24446;DHT22;13347;50.984;5.822;2023-06-26T01:59:57;22.10;1.00
24446;DHT22;13347;50.984;5.822;2023-06-26T02:02:27;22.00;1.00
24446;DHT22;13347;50.984;5.822;2023-06-26T02:04:55;21.90;38.60
24446;DHT22;13347;50.984;5.822;2023-06-26T02:07:22;21.90;99.90
24446;DHT22;13347;50.984;5.822;2023-06-26T02:09:49;21.90;99.90
24446;DHT22;13347;50.984;5.822;2023-06-26T02:12:16;21.80;99.90
24446;DHT22;13347;50.984;5.822;2023-06-26T02:14:44;21.70;99.90
24446;DHT22;13347;50.984;5.822;2023-06-26T02:17:10;21.80;99.90
24446;DHT22;13347;50.984;5.822;2023-06-26T02:19:39;21.80;99.90
24446;DHT22;13347;50.984;5.822;2023-06-26T02:22:13;21.90;99.90
24446;DHT22;13347;50.984;5.822;2023-06-26T02:24:40;21.90;99.90
24446;DHT22;13347;50.984;5.822;2023-06-26T02:27:07;21.80;99.90
24446;DHT22;13347;50.984;5.822;2023-06-26T02:29:34;21.80;92.10
24446;DHT22;13347;50.984;5.822;2023-06-26T02:32:01;21.80;99.90
24446;DHT22;13347;50.984;5.822;2023-06-26T02:34:28;21.70;99.90
24446;DHT22;13347;50.984;5.822;2023-06-26T02:36:57;21.60;99.90
24446;DHT22;13347;50.984;5.822;2023-06-26T02:39:24;21.50;1.00
24446;DHT22;13347;50.984;5.822;2023-06-26T02:41:51;21.40;1.00
24446;DHT22;13347;50.984;5.822;2023-06-26T02:44:18;21.30;1.00
24446;DHT22;13347;50.984;5.822;2023-06-26T02:46:45;21.20;96.00
24446;DHT22;13347;50.984;5.822;2023-06-26T02:49:12;21.10;99.90
24446;DHT22;13347;50.984;5.822;2023-06-26T02:51:39;21.10;1.00
24446;DHT22;13347;50.984;5.822;2023-06-26T02:54:07;21.00;1.00
24446;DHT22;13347;50.984;5.822;2023-06-26T02:56:34;21.00;9.00
24446;DHT22;13347;50.984;5.822;2023-06-26T02:59:01;20.90;99.90
24446;DHT22;13347;50.984;5.822;2023-06-26T03:01:28;20.80;1.00
24446;DHT22;13347;50.984;5.822;2023-06-26T03:03:55;20.70;1.00
24446;DHT22;13347;50.984;5.822;2023-06-26T03:06:22;20.70;38.10
24446;DHT22;13347;50.984;5.822;2023-06-26T03:08:49;20.60;99.90
24446;DHT22;13347;50.984;5.822;2023-06-26T03:11:17;20.50;99.90
24446;DHT22;13347;50.984;5.822;2023-06-26T03:13:44;20.50;99.90
24446;DHT22;13347;50.984;5.822;2023-06-26T03:16:11;20.40;99.90
24446;DHT22;13347;50.984;5.822;2023-06-26T03:18:38;20.40;99.90
24446;DHT22;13347;50.984;5.822;2023-06-26T03:21:05;20.40;99.90
24446;DHT22;13347;50.984;5.822;2023-06-26T03:23:32;20.30;99.90
24446;DHT22;13347;50.984;5.822;2023-06-26T03:25:59;20.40;1.00
24446;DHT22;13347;50.984;5.822;2023-06-26T03:28:27;20.30;1.00
24446;DHT22;13347;50.984;5.822;2023-06-26T03:30:54;20.30;1.00
24446;DHT22;13347;50.984;5.822;2023-06-26T03:33:21;20.30;1.00
24446;DHT22;13347;50.984;5.822;2023-06-26T03:35:48;20.40;1.00
24446;DHT22;13347;50.984;5.822;2023-06-26T03:38:15;20.40;1.00
24446;DHT22;13347;50.984;5.822;2023-06-26T03:40:42;20.40;1.00
24446;DHT22;13347;50.984;5.822;2023-06-26T03:43:08;20.20;1.00
24446;DHT22;13347;50.984;5.822;2023-06-26T03:45:37;20.20;1.00
24446;DHT22;13347;50.984;5.822;2023-06-26T03:48:04;20.20;1.00
24446;DHT22;13347;50.984;5.822;2023-06-26T03:50:31;20.20;1.00
24446;DHT22;13347;50.984;5.822;2023-06-26T03:52:58;20.10;1.00
24446;DHT22;13347;50.984;5.822;2023-06-26T03:55:25;20.10;7.80
24446;DHT22;13347;50.984;5.822;2023-06-26T03:57:51;20.10;1.00
24446;DHT22;13347;50.984;5.822;2023-06-26T04:00:18;20.10;1.00
24446;DHT22;13347;50.984;5.822;2023-06-26T04:02:47;20.10;1.00
24446;DHT22;13347;50.984;5.822;2023-06-26T04:05:14;20.10;1.00
24446;DHT22;13347;50.984;5.822;2023-06-26T04:07:42;20.10;1.00
24446;DHT22;13347;50.984;5.822;2023-06-26T04:10:09;20.10;1.00
24446;DHT22;13347;50.984;5.822;2023-06-26T04:12:36;20.10;1.00
24446;DHT22;13347;50.984;5.822;2023-06-26T04:15:03;20.10;1.00
24446;DHT22;13347;50.984;5.822;2023-06-26T04:17:31;20.20;1.00
24446;DHT22;13347;50.984;5.822;2023-06-26T04:19:59;20.10;1.00
24446;DHT22;13347;50.984;5.822;2023-06-26T04:22:26;20.10;1.00
24446;DHT22;13347;50.984;5.822;2023-06-26T04:24:53;20.10;99.90
24446;DHT22;13347;50.984;5.822;2023-06-26T04:27:20;20.10;99.90
24446;DHT22;13347;50.984;5.822;2023-06-26T04:29:47;20.20;99.90
24446;DHT22;13347;50.984;5.822;2023-06-26T04:32:14;20.30;99.90
24446;DHT22;13347;50.984;5.822;2023-06-26T04:34:41;20.40;99.90
24446;DHT22;13347;50.984;5.822;2023-06-26T04:37:10;20.40;99.90
24446;DHT22;13347;50.984;5.822;2023-06-26T04:39:41;20.40;99.90
24446;DHT22;13347;50.984;5.822;2023-06-26T04:42:08;20.50;99.90
24446;DHT22;13347;50.984;5.822;2023-06-26T04:44:37;20.40;99.90
24446;DHT22;13347;50.984;5.822;2023-06-26T04:47:06;20.30;99.90
24446;DHT22;13347;50.984;5.822;2023-06-26T04:49:33;20.20;99.90
24446;DHT22;13347;50.984;5.822;2023-06-26T04:52:00;20.20;1.00
24446;DHT22;13347;50.984;5.822;2023-06-26T04:54:29;20.10;1.00
24446;DHT22;13347;50.984;5.822;2023-06-26T04:56:56;20.20;1.00
24446;DHT22;13347;50.984;5.822;2023-06-26T04:59:25;20.20;1.00
24446;DHT22;13347;50.984;5.822;2023-06-26T05:01:52;20.20;1.00
24446;DHT22;13347;50.984;5.822;2023-06-26T05:04:19;20.10;1.00
24446;DHT22;13347;50.984;5.822;2023-06-26T05:06:46;20.00;1.00
24446;DHT22;13347;50.984;5.822;2023-06-26T05:09:13;20.00;1.00
24446;DHT22;13347;50.984;5.822;2023-06-26T05:11:41;20.00;99.90
24446;DHT22;13347;50.984;5.822;2023-06-26T05:14:08;20.00;99.90
24446;DHT22;13347;50.984;5.822;2023-06-26T05:16:35;20.10;99.90
24446;DHT22;13347;50.984;5.822;2023-06-26T05:19:02;20.40;99.90
24446;DHT22;13347;50.984;5.822;2023-06-26T05:21:29;20.70;1.00
24446;DHT22;13347;50.984;5.822;2023-06-26T05:23:56;20.90;1.00
24446;DHT22;13347;50.984;5.822;2023-06-26T05:26:24;20.70;1.00
24446;DHT22;13347;50.984;5.822;2023-06-26T05:28:53;20.60;1.00
24446;DHT22;13347;50.984;5.822;2023-06-26T05:31:20;20.50;1.00
24446;DHT22;13347;50.984;5.822;2023-06-26T05:33:47;20.30;1.00
24446;DHT22;13347;50.984;5.822;2023-06-26T05:36:16;20.30;99.90
24446;DHT22;13347;50.984;5.822;2023-06-26T05:38:43;20.70;59.20
24446;DHT22;13347;50.984;5.822;2023-06-26T05:41:10;21.20;1.00
24446;DHT22;13347;50.984;5.822;2023-06-26T05:43:37;21.40;1.00
24446;DHT22;13347;50.984;5.822;2023-06-26T05:46:06;21.50;99.90
24446;DHT22;13347;50.984;5.822;2023-06-26T05:48:33;21.30;99.90
24446;DHT22;13347;50.984;5.822;2023-06-26T05:51:00;21.40;99.90
24446;DHT22;13347;50.984;5.822;2023-06-26T05:53:28;21.50;99.90
24446;DHT22;13347;50.984;5.822;2023-06-26T05:55:55;21.60;1.00
24446;DHT22;13347;50.984;5.822;2023-06-26T05:58:25;21.70;1.00
24446;DHT22;13347;50.984;5.822;2023-06-26T06:00:53;21.80;1.00
24446;DHT22;13347;50.984;5.822;2023-06-26T06:03:21;22.20;1.00
24446;DHT22;13347;50.984;5.822;2023-06-26T06:05:48;22.70;1.00
24446;DHT22;13347;50.984;5.822;2023-06-26T06:08:15;22.70;99.90
24446;DHT22;13347;50.984;5.822;2023-06-26T06:10:42;22.70;99.90
24446;DHT22;13347;50.984;5.822;2023-06-26T06:13:09;22.70;99.90
24446;DHT22;13347;50.984;5.822;2023-06-26T06:15:36;23.00;1.00
24446;DHT22;13347;50.984;5.822;2023-06-26T06:18:03;22.80;1.00
24446;DHT22;13347;50.984;5.822;2023-06-26T06:20:31;23.20;1.00
24446;DHT22;13347;50.984;5.822;2023-06-26T06:22:58;23.50;1.00
24446;DHT22;13347;50.984;5.822;2023-06-26T06:25:25;23.40;1.00
24446;DHT22;13347;50.984;5.822;2023-06-26T06:27:52;23.00;1.00
24446;DHT22;13347;50.984;5.822;2023-06-26T06:30:19;22.80;1.00
24446;DHT22;13347;50.984;5.822;2023-06-26T06:32:46;22.80;1.00
24446;DHT22;13347;50.984;5.822;2023-06-26T06:35:16;22.90;1.00
24446;DHT22;13347;50.984;5.822;2023-06-26T06:37:44;23.00;1.00
24446;DHT22;13347;50.984;5.822;2023-06-26T06:40:11;23.40;1.00
24446;DHT22;13347;50.984;5.822;2023-06-26T06:42:38;23.10;1.00
24446;DHT22;13347;50.984;5.822;2023-06-26T06:45:06;23.40;1.00
24446;DHT22;13347;50.984;5.822;2023-06-26T06:47:33;23.30;1.00
24446;DHT22;13347;50.984;5.822;2023-06-26T22:54:35;17.30;43.20
24446;DHT22;13347;50.984;5.822;2023-06-26T22:57:02;17.40;85.80
24446;DHT22;13347;50.984;5.822;2023-06-26T22:59:30;17.30;97.20
24446;DHT22;13347;50.984;5.822;2023-06-26T23:01:57;17.20;99.90
24446;DHT22;13347;50.984;5.822;2023-06-26T23:04:24;17.20;99.90
24446;DHT22;13347;50.984;5.822;2023-06-26T23:06:51;17.10;99.90
24446;DHT22;13347;50.984;5.822;2023-06-26T23:09:22;16.90;99.90
24446;DHT22;13347;50.984;5.822;2023-06-26T23:11:50;16.90;99.90
24446;DHT22;13347;50.984;5.822;2023-06-26T23:14:17;16.80;99.90
24446;DHT22;13347;50.984;5.822;2023-06-26T23:16:45;16.70;99.90
24446;DHT22;13347;50.984;5.822;2023-06-26T23:19:16;16.80;99.90
24446;DHT22;13347;50.984;5.822;2023-06-26T23:21:43;16.90;99.90
24446;DHT22;13347;50.984;5.822;2023-06-26T23:24:12;16.80;99.90
24446;DHT22;13347;50.984;5.822;2023-06-26T23:26:40;16.90;99.90
24446;DHT22;13347;50.984;5.822;2023-06-26T23:29:08;17.10;99.90
24446;DHT22;13347;50.984;5.822;2023-06-26T23:31:35;17.10;99.90
24446;DHT22;13347;50.984;5.822;2023-06-26T23:34:02;17.00;99.90
24446;DHT22;13347;50.984;5.822;2023-06-26T23:36:29;17.00;1.00
24446;DHT22;13347;50.984;5.822;2023-06-26T23:39:03;16.90;1.00
24446;DHT22;13347;50.984;5.822;2023-06-26T23:41:30;16.80;1.00
24446;DHT22;13347;50.984;5.822;2023-06-26T23:43:58;16.80;1.00
24446;DHT22;13347;50.984;5.822;2023-06-26T23:46:27;16.70;1.00
24446;DHT22;13347;50.984;5.822;2023-06-26T23:48:54;16.60;1.00
24446;DHT22;13347;50.984;5.822;2023-06-26T23:51:21;16.60;1.00
24446;DHT22;13347;50.984;5.822;2023-06-26T23:53:48;16.60;1.00
24446;DHT22;13347;50.984;5.822;2023-06-26T23:56:15;16.50;1.00
24446;DHT22;13347;50.984;5.822;2023-06-26T23:58:42;16.50;1.00
